Stations météo

réclame
Mon MeteoGroup
Carlsfeld, Allemagne (10574): Température de l'air & dewpoint: 13.06.2019 17:00:00 - 19.06.2019 17:00:00 (CEST)Carlsfeld, Allemagne (10574): Température de l'air 5cm & Température de l'air -5cm: 13.06.2019 17:00:00 - 19.06.2019 17:00:00 (CEST)Carlsfeld, Allemagne (10574): Température de l'air -20cm & Température de l'air -100cm: 13.06.2019 17:00:00 - 19.06.2019 17:00:00 (CEST)Carlsfeld, Allemagne (10574): Vitesse du vent & gusts: 13.06.2019 17:00:00 - 19.06.2019 17:00:00 (CEST)Carlsfeld, Allemagne (10574): Direction du vent: 13.06.2019 17:00:00 - 19.06.2019 17:00:00 (CEST)Carlsfeld, Allemagne (10574): visibility: 13.06.2019 17:00:00 - 19.06.2019 17:00:00 (CEST)Carlsfeld, Allemagne (10574): Ensoleillement: 13.06.2019 17:00:00 - 19.06.2019 17:00:00 (CEST)Carlsfeld, Allemagne (10574): Quantités de précipitations: 13.06.2019 17:00:00 - 19.06.2019 17:00:00 (CEST)
Date & Time tt [°C] td [°C] tt 5cm [°C] tt -5cm [°C] tt -20cm [°C] tt -100cm [°C] ff [km/h] ff [knt] fx [km/h] fx [knt] dd vv [km] sd [min] rr [mm]
19.06.2019 17:00:00 22,3 11,7 25,1 24,2 20,0 13,3 13 7 23 13 S 47 47 0,0
19.06.2019 16:00:00 18,0 12,6 17,2 22,6 19,9 13,3 11 6 23 13 S 39 6 0,0
19.06.2019 15:00:00 17,8 13,6 16,2 25,1 19,5 13,3 11 6 29 15 WSW 28 14 0,8
19.06.2019 14:00:00 23,9 12,1 28,7 26,3 19,0 13,3 11 6 32 18 WSW 30 44 0,0
19.06.2019 13:00:00 22,7 12,0 25,2 25,6 18,5 13,3 13 7 22 12 SSW 40 54 0,0
19.06.2019 12:00:00 22,8 12,5 26,2 24,9 17,9 13,3 11 6 23 13 S 37 44 0,0
19.06.2019 11:00:00 22,7 11,5 25,2 23,6 17,4 13,3 10 5 23 13 WSW 35 59 0,0
19.06.2019 10:00:00 21,9 12,5 25,0 21,0 17,2 13,3 10 5 18 10 SSW 22 60 0,0
19.06.2019 09:00:00 19,6 12,5 20,5 18,3 17,1 13,3 9 5 18 10 SSW 42 27 0,0
19.06.2019 08:00:00 19,0 13,0 19,3 17,2 17,1 13,3 6 3 15 8 S 41 34 0,0
19.06.2019 07:00:00 17,8 12,0 17,5 15,8 17,3 13,3 7 4 16 8 S 40 40 0,0
19.06.2019 06:00:00 16,7 11,3 15,5 14,8 17,5 13,3 8 4 17 9 S 37 0 0,0
19.06.2019 05:00:00 16,7 11,3 14,8 15,0 17,8 13,3 8 4 16 9 S 41 0 0,0
19.06.2019 04:00:00 16,7 11,5 15,3 15,3 18,1 13,3 8 5 21 11 S 45 0 0,0
19.06.2019 03:00:00 16,5 11,4 15,1 15,6 18,4 13,3 10 6 20 11 S 43 0 0,0
19.06.2019 02:00:00 16,6 11,3 15,1 15,9 18,8 13,3 9 5 17 9 S 49 0 0,0
19.06.2019 01:00:00 16,4 11,3 14,7 16,4 19,2 13,3 10 5 20 11 S 45 0 0,0
19.06.2019 00:00:00 16,7 11,0 15,1 17,0 19,6 13,3 14 7 23 12 SSE 42 0 0,0
18.06.2019 23:00:00 16,6 10,5 14,9 18,0 20,0 13,3 12 6 21 11 SSE 53 0 0,0
18.06.2019 22:00:00 16,9 10,6 13,7 19,3 20,3 13,3 6 4 11 6 SSE 50 0 0,0
18.06.2019 21:00:00 18,7 11,0 15,5 20,8 20,5 13,3 7 4 17 9 SE 49 11 0,0
18.06.2019 20:00:00 20,6 10,8 19,1 22,6 20,6 13,3 9 5 22 12 SSE 50 60 0,0
18.06.2019 19:00:00 21,0 10,3 22,0 24,1 20,4 13,3 8 4 21 11 SSE 46 21 0,0
18.06.2019 18:00:00 22,3 10,4 25,2 25,9 20,1 13,3 11 6 25 14 SSE 35 58 0,0
18.06.2019 17:00:00 21,7 10,3 24,4 25,9 19,8 13,3 14 8 23 12 SE 40 35 0,0
18.06.2019 16:00:00 21,9 9,2 26,2 26,6 19,3 13,3 12 7 28 15 S 37 46 0,0
18.06.2019 15:00:00 21,1 9,4 24,2 26,6 18,7 13,3 12 7 24 13 S 49 34 0,0
18.06.2019 14:00:00 21,1 9,6 26,0 26,4 18,0 13,3 11 6 27 15 SSE 42 47 0,0
18.06.2019 13:00:00 20,5 10,0 23,8 25,6 17,4 13,3 14 7 32 17 S 37 55 0,0
18.06.2019 12:00:00 20,2 10,2 24,1 23,8 16,8 13,3 15 8 31 17 SSE 35 58 0,0
18.06.2019 11:00:00 19,1 10,0 22,8 21,9 16,3 13,3 17 9 31 17 SSE 27 60 0,0
18.06.2019 10:00:00 18,5 10,0 21,4 19,7 16,0 13,3 15 8 34 18 SSE 23 60 0,0
18.06.2019 09:00:00 17,9 9,8 20,1 17,3 15,8 13,3 13 7 29 16 SSE 29 60 0,0
18.06.2019 08:00:00 16,6 10,1 17,6 15,2 15,9 13,3 15 8 32 18 SSE 28 60 0,0
18.06.2019 07:00:00 15,6 10,8 15,8 13,5 16,1 13,3 12 6 23 12 S 31 60 0,0
18.06.2019 06:00:00 13,9 10,3 12,9 12,6 16,4 13,3 9 5 17 9 S 25 31 0,0
18.06.2019 05:00:00 13,1 9,4 11,2 12,8 16,7 13,3 11 6 19 11 SSE 53 0 0,0
18.06.2019 04:00:00 13,3 9,0 11,5 13,1 17,1 13,3 10 5 21 11 S 57 0 0,0
18.06.2019 03:00:00 13,4 9,2 11,1 13,6 17,5 13,3 11 6 24 13 SSE 52 0 0,0
18.06.2019 02:00:00 14,0 9,1 11,6 14,2 17,8 13,3 9 5 21 11 SE 55 0 0,0
18.06.2019 01:00:00 14,1 9,7 12,0 14,8 18,3 13,3 9 5 20 11 SSE 46 0 0,0
18.06.2019 00:00:00 14,2 9,8 12,0 15,5 18,7 13,3 11 6 16 9 SE 49 0 0,0
17.06.2019 23:00:00 14,8 9,4 12,4 16,4 19,1 13,3 10 6 18 10 SE 50 0 0,0
17.06.2019 22:00:00 15,4 8,8 12,4 17,7 19,4 13,3 9 5 19 11 ESE 53 0 0,0
17.06.2019 21:00:00 17,1 8,6 14,6 19,1 19,6 13,3 9 5 23 12 SE 58 25 0,0
17.06.2019 20:00:00 18,8 8,0 17,2 20,9 19,7 13,3 10 5 23 12 SE 70 56 0,0
17.06.2019 19:00:00 19,7 8,6 21,3 22,0 19,6 13,3 7 4 17 9 SE 70 37 0,0
17.06.2019 18:00:00 19,7 8,4 19,6 23,5 19,4 13,3 11 6 22 12 ESE 70 41 0,0
17.06.2019 17:00:00 19,1 8,2 19,3 24,3 19,0 13,3 9 5 22 12 SE 70 12 0,0
17.06.2019 16:00:00 19,8 7,7 24,0 26,2 18,5 13,3 9 5 29 16 SSE 59 49 0,0
17.06.2019 15:00:00 19,2 8,1 23,0 25,4 17,8 13,3 10 6 21 11 SE 57 34 0,0
17.06.2019 14:00:00 19,2 9,0 25,0 24,6 17,3 13,3 9 5 18 10 SE 25 56 0,0
17.06.2019 13:00:00 18,4 9,7 21,6 21,8 16,8 13,3 12 6 24 13 SSE 40 21 0,0
17.06.2019 12:00:00 17,6 8,9 19,8 21,1 16,4 13,3 8 4 15 8 ESE 51 11 0,0
17.06.2019 11:00:00 17,2 8,6 19,7 21,2 15,9 13,2 6 3 16 8 NNE 49 33 0,0
17.06.2019 10:00:00 16,5 7,7 19,0 18,9 15,6 13,2 3 2 14 8 WNW 38 56 0,0
17.06.2019 09:00:00 15,4 8,2 17,3 15,9 15,5 13,2 8 4 15 8 SE 33 38 0,0
17.06.2019 08:00:00 12,9 8,2 12,9 13,6 15,7 13,2 4 2 8 5 SSE 66 12 0,0
17.06.2019 07:00:00 9,7 8,9 10,4 12,6 16,0 13,2 2 1 6 3 SSE 38 1 0,0
17.06.2019 06:00:00 8,3 7,2 8,2 12,2 16,3 13,2 3 2 6 4 S 15 9 0,0
17.06.2019 05:00:00 8,1 7,2 6,3 12,7 16,6 13,2 2 1 5 3 E 14 0 0,0
17.06.2019 04:00:00 9,3 8,3 6,7 13,7 16,9 13,2 2 1 4 2 SE 4,2 0 0,0
17.06.2019 03:00:00 10,5 9,4 10,2 14,4 17,2 13,2 0 0 7 4 N 12 0 0,0
17.06.2019 02:00:00 11,2 10,4 10,2 14,9 17,4 13,2 4 2 6 3 SSE 3,5 0 0,0
17.06.2019 01:00:00 11,5 10,7 10,8 15,4 17,7 13,2 2 1 5 3 ENE 4,5 0 0,0
17.06.2019 00:00:00 12,2 11,2 11,9 16,1 17,9 13,2 0 0 5 3 N 4,2 0 0,0
16.06.2019 23:00:00 12,5 11,4 12,4 16,5 18,2 13,2 0 0 5 3 N 7 0 0,0
16.06.2019 22:00:00 12,7 11,6 12,6 17,0 18,4 13,2 0 0 7 4 N 11 0 0,0
16.06.2019 21:00:00 12,8 11,4 12,7 17,6 18,6 13,2 2 1 6 3 NE 15 0 0,0
16.06.2019 20:00:00 13,1 11,5 13,0 18,3 18,7 13,2 3 1 11 6 ENE 19 0 0,2
16.06.2019 19:00:00 13,7 11,4 13,4 19,3 18,8 13,2 0 0 9 5 N 6 0 0,9
16.06.2019 18:00:00 14,7 9,6 15,0 20,9 18,6 13,1 6 4 19 10 ENE 52 0 0,0
16.06.2019 17:00:00 16,5 9,6 18,0 22,6 18,3 13,1 4 2 13 7 NNE 62 17 0,0
16.06.2019 16:00:00 16,0 9,3 18,2 23,2 17,8 13,1 5 3 16 9 ESE 70 28 0,0
16.06.2019 15:00:00 15,6 8,9 18,7 22,6 17,4 13,1 6 3 14 7 ENE 46 25 0,0
16.06.2019 14:00:00 14,6 10,0 17,8 20,5 17,0 13,1 6 3 14 8 ENE 41 2 0,0
16.06.2019 13:00:00 14,0 10,1 16,1 18,9 16,8 13,1 6 3 13 7 ENE 35 1 0,0
16.06.2019 12:00:00 13,1 10,3 14,1 17,7 16,7 13,1 8 4 21 11 E 34 0 0,0
16.06.2019 11:00:00 12,7 10,5 14,7 16,6 16,7 13,1 9 5 14 8 ENE 20 0 0,0
16.06.2019 10:00:00 11,6 10,0 12,5 15,2 16,9 13,1 5 3 11 6 ENE 19 0 0,2
16.06.2019 09:00:00 10,4 8,7 10,5 14,1 17,2 13,1 10 5 19 10 E 11 0 3,2
16.06.2019 08:00:00 11,6 10,3 11,4 14,4 17,5 13,1 3 2 8 5 N 5 0 5,0
16.06.2019 07:00:00 12,0 10,7 11,6 14,8 17,8 13,0 4 2 14 7 N 1,7 0 0,6
16.06.2019 06:00:00 12,2 10,6 11,8 15,0 18,1 13,0 6 4 18 10 NE 15 0 0,1
16.06.2019 05:00:00 12,6 10,5 12,3 15,3 18,4 13,0 5 3 18 10 NNE 20 0 0,0
16.06.2019 04:00:00 13,1 11,0 12,3 15,8 18,7 13,0 5 3 24 13 N 21 0 0,0
16.06.2019 03:00:00 13,7 11,1 13,2 16,4 19,0 13,0 7 4 19 10 ENE 30 0 0,0
16.06.2019 02:00:00 14,5 11,2 14,1 16,9 19,4 13,0 7 4 24 13 NE 45 0 0,0
16.06.2019 01:00:00 15,0 10,5 14,3 17,4 19,7 13,0 8 4 21 11 NNE 58 0 0,0
16.06.2019 00:00:00 15,8 11,2 15,3 18,1 20,1 13,0 7 4 21 11 N 67 0 0,0
15.06.2019 23:00:00 16,1 11,0 15,6 18,6 20,5 13,0 6 3 18 10 N 70 0 0,0
15.06.2019 22:00:00 16,4 11,1 13,3 19,9 20,8 13,0 3 1 13 7 WNW 70 0 0,0
15.06.2019 21:00:00 18,1 11,1 16,7 21,2 21,0 13,0 5 3 17 9 NW 70 31 0,0
15.06.2019 20:00:00 19,2 11,2 18,4 22,6 21,1 13,0 4 2 22 12 NNW 70 59 0,0
15.06.2019 19:00:00 20,4 11,1 21,7 24,2 21,0 13,0 7 4 30 16 WNW 53 60 0,0
15.06.2019 18:00:00 21,8 11,6 23,3 25,7 20,8 13,0 10 5 27 15 NW 41 60 0,0
15.06.2019 17:00:00 22,2 11,3 25,1 26,3 20,5 13,0 14 8 36 19 W 28 47 0,0
15.06.2019 16:00:00 22,9 11,2 26,3 26,7 20,1 13,0 15 8 32 18 W 31 48 0,0
15.06.2019 15:00:00 23,6 10,7 26,3 27,0 19,7 13,0 14 8 31 17 W 47 51 0,0
15.06.2019 14:00:00 23,1 10,2 24,7 26,2 19,2 13,0 16 9 40 22 WSW 37 34 0,0
15.06.2019 13:00:00 24,8 9,8 27,6 26,2 18,7 13,0 16 9 37 20 W 27 58 0,0
15.06.2019 12:00:00 23,8 11,2 26,7 25,0 18,2 13,0 19 11 34 18 W 27 58 0,0
15.06.2019 11:00:00 22,7 12,5 25,1 23,2 17,8 13,0 18 10 33 18 WSW 20 47 0,0
15.06.2019 10:00:00 22,6 13,3 23,0 22,1 17,5 13,0 17 9 35 19 WSW 26 51 0,0
15.06.2019 09:00:00 22,4 15,2 24,7 19,3 17,4 13,0 9 5 28 15 S 18 48 0,0
15.06.2019 08:00:00 19,8 15,4 20,2 17,7 17,5 13,0 11 6 29 16 S 15 18 0,0
15.06.2019 07:00:00 18,7 15,2 18,3 16,8 17,6 13,0 10 5 28 15 S 15 0 0,0
15.06.2019 06:00:00 18,8 15,0 18,0 16,6 17,8 13,0 14 8 29 16 S 16 0 0,0
15.06.2019 05:00:00 18,9 14,9 17,0 16,8 17,9 13,0 12 6 33 18 S 18 0 0,0
15.06.2019 04:00:00 19,7 15,0 18,3 17,3 18,0 13,0 18 10 39 21 SSE 19 0 0,0
15.06.2019 03:00:00 20,4 15,0 19,3 17,5 18,2 12,9 18 10 49 27 SSE 21 0 0,0
15.06.2019 02:00:00 20,8 14,7 19,8 17,5 18,4 12,9 24 13 46 25 SSE 22 0 0,0
15.06.2019 01:00:00 20,9 14,6 19,7 17,5 18,6 12,9 24 13 40 22 SE 24 0 0,0
15.06.2019 00:00:00 20,5 14,6 18,9 17,6 18,9 12,9 17 9 36 19 SE 25 0 0,0
14.06.2019 23:00:00 20,5 12,9 18,7 17,8 19,2 12,9 18 10 34 18 ESE 32 0 0,0
14.06.2019 22:00:00 19,8 11,0 16,9 18,7 19,5 12,9 8 4 20 11 ESE 45 0 0,0
14.06.2019 21:00:00 21,0 10,4 18,6 19,8 19,7 12,9 10 6 29 16 ESE 53 0 0,0
14.06.2019 20:00:00 21,8 10,7 20,3 21,1 19,8 12,9 10 5 23 13 SE 52 0 0,0
14.06.2019 19:00:00 22,8 9,8 21,4 22,5 19,7 13,0 9 5 23 12 ESE 54 0 0,0
14.06.2019 18:00:00 23,9 8,0 23,7 23,9 19,5 12,9 13 7 28 15 SE 56 35 0,0
14.06.2019 17:00:00 24,6 8,6 27,1 24,7 19,2 12,9 11 6 31 17 S 34 39 0,0
14.06.2019 16:00:00 23,4 10,0 24,1 25,2 18,7 12,9 17 9 37 20 SSE 50 49 0,0
14.06.2019 15:00:00 23,6 9,8 26,9 25,6 18,2 12,9 23 13 44 24 SE 22 60 0,0
14.06.2019 14:00:00 22,4 10,3 26,0 25,0 17,6 12,9 22 12 42 23 SSE 28 56 0,0
14.06.2019 13:00:00 21,8 10,8 24,6 23,8 17,0 12,9 16 8 36 19 S 38 60 0,0
14.06.2019 12:00:00 20,9 9,9 24,3 23,2 16,5 12,9 19 11 35 19 SE 29 60 0,0
14.06.2019 11:00:00 20,2 9,1 23,0 21,4 16,0 12,9 24 13 39 21 SSE 25 60 0,0
14.06.2019 10:00:00 20,0 7,8 22,2 19,3 15,6 12,9 19 10 33 18 SSE 27 60 0,0
14.06.2019 09:00:00 18,8 10,2 20,5 17,2 15,4 12,9 16 9 25 13 SE 30 60 0,0
14.06.2019 08:00:00 17,4 13,4 18,6 14,8 15,4 12,9 13 7 23 12 SE 19 60 0,0
14.06.2019 07:00:00 15,4 12,3 14,6 12,5 15,7 12,9 8 5 14 8 SSE 31 60 0,0
14.06.2019 06:00:00 13,0 11,5 11,5 11,0 16,1 12,9 5 3 11 6 S 28 37 0,0
14.06.2019 05:00:00 8,5 7,7 6,2 11,3 16,5 12,9 5 3 8 4 S 21 0 0,0
14.06.2019 04:00:00 8,3 7,4 6,0 11,9 16,9 12,9 0 0 6 3 N 16 0 0,0
14.06.2019 03:00:00 9,1 8,1 6,7 12,7 17,4 12,9 4 2 9 5 SW 21 0 0,0
14.06.2019 02:00:00 9,9 9,0 7,5 13,5 17,8 12,9 5 3 9 5 SSW 24 0 0,0
14.06.2019 01:00:00 10,4 9,1 7,3 14,5 18,2 12,9 6 3 11 6 WSW 27 0 0,0
14.06.2019 00:00:00 12,1 10,7 8,2 15,8 18,6 12,8 5 3 10 5 SW 26 0 0,0
13.06.2019 23:00:00 13,9 11,7 12,0 16,9 18,9 12,8 5 3 9 5 S 46 0 0,0
13.06.2019 22:00:00 14,4 11,9 12,0 18,0 19,1 12,8 5 3 7 4 W 40 0 0,0
13.06.2019 21:00:00 16,3 12,2 13,6 19,1 19,2 12,8 3 2 6 3 NNW 51 31 0,0
13.06.2019 20:00:00 17,9 11,7 17,1 20,3 19,3 12,8 4 2 13 7 NE 60 31 0,0
13.06.2019 19:00:00 17,8 12,6 17,9 20,9 19,3 12,8 2 1 9 5 NE 60 7 0,0
13.06.2019 18:00:00 17,8 10,8 18,5 21,8 19,2 12,8 4 2 11 6 NE 65 13 0,0
13.06.2019 17:00:00 18,5 11,1 22,3 22,5 19,0 12,8 6 3 10 5 SE 61 19 0,0

tt = Température de l'air
td = dewpoint
tt 5cm = Température de l'air 5cm
tt -5cm = Température de l'air -5cm
tt -20cm = Température de l'air -20cm
tt -100cm = Température de l'air -100cm
ff = Vitesse du vent
fx = gusts
dd = Direction du vent
vv = visibility
sd = Ensoleillement
rr = Quantités de précipitations

stations d'obs. à proximité